Martha's Vineyard Airport

Airport
ICAO code: 
KMVY
Summary
ICAO Region: 
NAM
Territory: 
Location: 
Vineyard Haven, Massachusetts,
Coordinates: 
Aerial View: 
41° 23' 26.678" N, 70° 36' 51.277" W
Airport BS: 
Bird Strike
Airport WX: 
Cumulonimbus
Metar
Observation
KMVY 020953Z AUTO 16008KT 10SM BKN110 10/05 A2999 RMK AO2 SLP154 T01000050
Station
Vineyard Haven, Marthas Vineyard Airport
Date/Time
2021-12-02 09:53:00
Wind direction
160°
Wind speed
08 kts
Lowest cloud amount
broken clouds
Temperature
10°C
Dew point
5°C
Humidity
71%
Weather condition
n/a

Description

Martha's Vineyard Airport is a public airport located in the middle of the island of Martha's Vineyard, 5 km south of the central business district of Vineyard Haven, in Dukes County, Massachusetts.

Climatology

Humid continental climate with a strong maritime influence (Köppen climate classification Dfb/Cfb) Precipitation amounts are fairly consistent from month to month regardless of the time of year. Due to the strong oceanic influence, summers on Martha's Vineyard are cooler and winters are warmer than on the mainland.

Runways

Designator Length Width Surface Rops
1/19 968 23 ASP No/No
15/33 1005 23 ASP Yes/Yes
6/24 1678 30 ASP Yes/Yes
Airport map: 
Aerial View: 

SKYbrary Partners:

Safety knowledge contributed by: